• Join FlightAware (Why Join?)
  • Login
  • US Flag 
05:39PM EDT


 

Airport Tracker/Info


-or-


 

Live Flight TrackerFlight Track Log ✈ ASQ5678 ✈ 29-Jun-2013 ✈ KCLE - KIAD

Flight Track Log - Related Links

Times and Time Zones

All times are in EDT time to prevent confusion due to time zone crossing. See the ASQ5678 flight status page for this flight to view local times or setup timezone preferences in your user account.

Time Position Orientation Groundspeed Altitude Reporting Facility
EDT Latitude Longitude Course Direction KTS MPH feet Rate Location/Type
03:30PM 41.4194 -81.8292 118° Southeast 182 209 1,700  Level Cleveland Center
03:31PM 41.4242 -81.7794 83° East 196 226 3,400 1,800 Climbing Cleveland Center
03:32PM 41.3958 -81.7097 118° Southeast 214 246 4,900 1,680 Climbing Cleveland Center
03:33PM 41.2398 -81.4995 118° Southeast  Level FlightAware Approximate
03:33PM 41.3528 -81.6342 127° Southeast 282 325 6,700  Level Cleveland Center
03:34PM 41.1888 -81.3804 127° Southeast  Level FlightAware Approximate
03:34PM 41.3117 -81.5672 129° Southeast 275 316 9,200  Level Cleveland Center
03:35PM 41.1279 -81.2699 118° Southeast  Level FlightAware Approximate
03:35PM 41.2706 -81.4864 124° Southeast 264 304 12,000  Level Cleveland Center
03:36PM 41.2294 -81.4114 126° Southeast 253 291 14,000 1,680 Climbing Cleveland Center
03:37PM 41.1861 -81.3528 134° Southeast 248 285 15,400 1,380 Climbing Cleveland Center
03:38PM 41.1050 -81.3106 159° South 262 302 16,800 1,500 Climbing Cleveland Center
03:39PM 41.0261 -81.2739 161° South 292 336 18,500 1,500 Climbing Cleveland Center
03:40PM 40.9408 -81.2372 162° South 317 365 19,900 1,380 Climbing Cleveland Center
03:41PM 40.8536 -81.1925 159° South 331 381 21,300 1,380 Climbing Cleveland Center
03:42PM 40.7683 -81.1286 150° Southeast 337 388 22,700 1,380 Climbing Cleveland Center
03:43PM 40.6811 -81.0622 150° Southeast 351 404 24,100 1,260 Climbing Cleveland Center
03:44PM 40.5936 -81.0150 158° South 351 404 25,300 1,260 Climbing Cleveland Center
03:45PM 40.4958 -80.9817 165° South 346 398 26,700 840 Climbing Cleveland Center
03:46PM 40.4064 -80.9294 156° South 351 404 27,000 120 Climbing Cleveland Center
03:47PM 40.3378 -80.8364 134° Southeast 362 417 27,000  Level Cleveland Center
03:48PM 40.2506 -80.7789 153° Southeast 368 423 27,000  Level Cleveland Center
03:49PM 40.1567 -80.7514 167° South 356 410 27,000  Level Cleveland Center
03:50PM 40.0628 -80.7186 165° South 350 403 27,000  Level Cleveland Center
03:51PM 39.9711 -80.6914 167° South 345 397 27,000  Level Cleveland Center
03:52PM 39.8817 -80.6617 166° South 340 391 27,000  Level Cleveland Center
03:53PM 39.7919 -80.6289 164° South 335 386 27,000  Level Cleveland Center
03:54PM 39.7067 -80.5642 150° Southeast 335 386 27,000  Level Cleveland Center
03:55PM 39.7169 -80.4347 84° East 301 346 27,000  Level Cleveland Center
03:56PM 39.8147 -80.3694 27° Northeast 247 284 27,000  Level Cleveland Center
03:57PM 39.9147 -80.3125 24° Northeast 317 365 27,000  Level Cleveland Center
03:58PM 39.9747 -80.2067 53° Northeast 342 394 27,000  Level Cleveland Center
03:59PM 39.9181 -80.1039 126° Southeast 260 299 27,000  Level Cleveland Center
04:00PM 39.8428 -80.0100 136° Southeast 295 339 27,000  Level Cleveland Center
04:01PM 39.7692 -79.9053 132° Southeast 349 402 27,000  Level Cleveland Center
04:02PM 39.6933 -79.8008 133° Southeast 378 435 27,000  Level Cleveland Center
04:03PM 39.6175 -79.6939 133° Southeast 397 457 27,000  Level Cleveland Center
04:04PM 39.5094 -79.5403 132° Southeast 401 461 27,000 -180 Level Washington Center
04:05PM 39.4728 -79.3850 107° East 423 487 26,700 -780 Descending Washington Center
04:07PM 39.4386 -79.2086 104° East 433 498 25,500 -1,560 Descending Washington Center
04:07PM 39.4117 -79.0569 103° East 438 504 23,700 -2,160 Descending Washington Center
04:08PM 39.3847 -78.9106 103° East 433 498 21,300 -2,160 Descending Washington Center
04:09PM 39.3614 -78.7697 102° East 421 484 19,400 -2,280 Descending Washington Center
04:11PM 39.3336 -78.6264 104° East 410 472 16,800 -2,280 Descending Washington Center
04:12PM 39.2972 -78.4961 110° East 398 458 14,900 -2,040 Descending Washington Center
04:12PM 39.2542 -78.3819 116° Southeast 373 429 12,900 -1,800 Descending Washington Center
04:13PM 39.2314 -78.2872 107° East 358 412 11,400 -1,260 Descending Washington Center
04:15PM 39.1839 -78.1703 118° Southeast 324 373 10,400 -1,200 Descending Washington Center
04:15PM 39.1356 -78.0831 126° Southeast 307 353 9,100 -1,020 Descending Washington Center
04:16PM 39.0894 -77.9958 124° Southeast 302 348 8,500 -900 Descending Washington Center
04:17PM 39.0453 -77.9114 124° Southeast 297 342 7,300 -1,200 Descending Washington Center
04:18PM 39.0092 -77.8408 123° Southeast 282 325 6,200 -660 Descending Washington Center
04:19PM 38.9669 -77.7542 122° Southeast 266 306 6,000 -120 Descending Washington Center
04:20PM 38.9558 -77.6683 99° East 253 291 6,000 -60 Level Washington Center
04:21PM 39.0000 -77.5833 56° Northeast 278 320 5,900 -600 Descending Potomac TRACON
04:22PM 39.0667 -77.5667 11° North 269 310 4,900 -1,200 Descending Potomac TRACON
04:23PM 39.1333 -77.5667 360° North 255 293 3,700 -900 Descending Potomac TRACON
04:24PM 39.1333 -77.5000 90° East 220 253 3,100 -600 Descending Potomac TRACON